首页
METAR-TAF:

METAR-TAF

机场 :

Dekalb-Peachtree Airport

亚特兰大, 喬治亞, 美国

纬度: 33-52-42N, 经度: 084-17-53W, 海拔: 305米

当前天气观测

该预报发布于11分钟前的16:18 UTC
风速6节,风向多变
温度 4°C
湿度 100%
气压 1021 hPa
能見度: 2.0公里
阴天层高于500英尺
轻雾

METAR: KPDK 201618Z VRB06KT 1 1/4SM BR OVC005 04/04 A3016 RMK AO2 T00390039

时间: 11:29 (16:29 UTC)

预报

该预报发布于5小时和3分钟前的11:26 UTC
预报有效从20日的 12点(UTC)到 21日的 12点(UTC)
风速10节,风向
能見度: 4.8公里
阴天层高于500英尺
小雨, 毛毛雨
从 20日的 1500点(UTC)
风速9节,风向
能見度: 6.4公里
阴天层高于600英尺
轻雾, 附近有阵雨
从 20日的 2300点(UTC)
风速4节,风向东南
能見度: 4.8公里
阴天层高于500英尺
轻雾, 附近有阵雨
从 21日的 0200点(UTC)
风速4节,风向东南
能見度: 4.8公里
阴天层高于300英尺
小阵雨
从 21日的 0800点(UTC)
风速4节,风向南转西南
能見度: 3.2公里
阴天层高于300英尺
小阵雨

TAF: KPDK 201126Z 2012/2112 08010KT 3SM -RADZ OVC005 FM201500 09009KT 4SM BR VCSH OVC006 FM202300 13004KT 3SM BR VCSH OVC005 FM210200 14004KT 3SM -SHRA OVC003 FM210800 20004KT 2SM -SHRA OVC003

超过4000个机场的气象观测和天气预报(METAR&TAF报告)。

可查询的气象台以黄色和红色小点在地图上表示。

将鼠标移到小点上方,可查看气象台名称。

然后点击查看天气观测和预报。

如需切换地图:点击带黑十字的绿色按钮放大地图;点击带横线的绿色按钮缩小地图;或者点击绿色箭头查看邻近地区的地图。


METAR-TAF: